createdAt,value
2018-09-30T00:00:06.115Z,14.91
2018-09-30T00:02:35.036Z,15.02
2018-09-30T00:05:04.065Z,15.05
2018-09-30T00:07:32.995Z,15.07
2018-09-30T00:10:01.948Z,15.08
2018-09-30T00:12:30.988Z,15.11
2018-09-30T00:15:00.051Z,15.13
2018-09-30T00:17:28.984Z,15.07
2018-09-30T00:19:58.026Z,15.07
2018-09-30T00:22:27.002Z,15.09
2018-09-30T00:25:01.735Z,15.12
2018-09-30T00:27:31.321Z,15.11
2018-09-30T00:30:00.274Z,15.07
2018-09-30T00:32:29.228Z,15.06
2018-09-30T00:34:58.208Z,15.06
2018-09-30T00:37:27.201Z,15.06
2018-09-30T00:39:56.158Z,15.05
2018-09-30T00:42:25.120Z,15.03
2018-09-30T00:44:54.101Z,15.03
2018-09-30T00:47:23.108Z,14.83
2018-09-30T00:49:52.060Z,14.59
2018-09-30T00:52:20.991Z,13.79
2018-09-30T00:54:49.940Z,13.71
2018-09-30T00:57:18.865Z,13.81
2018-09-30T00:59:47.768Z,13.95
2018-09-30T01:02:16.723Z,14.04
2018-09-30T01:04:45.683Z,14.22
2018-09-30T01:07:14.638Z,14.14
2018-09-30T01:09:43.657Z,14.08
2018-09-30T01:12:12.616Z,14.17
2018-09-30T01:14:41.562Z,14.32
2018-09-30T01:17:10.498Z,14.43
2018-09-30T01:19:39.426Z,14.47
2018-09-30T01:22:08.381Z,14.52
2018-09-30T01:24:37.320Z,14.50
2018-09-30T01:27:06.326Z,14.06
2018-09-30T01:29:35.248Z,13.93
2018-09-30T01:32:04.403Z,14.16
2018-09-30T01:34:33.335Z,14.25
2018-09-30T01:37:02.276Z,14.34
2018-09-30T01:39:31.276Z,14.41
2018-09-30T01:42:00.204Z,14.38
2018-09-30T01:44:29.167Z,14.01
2018-09-30T01:46:58.121Z,13.81
2018-09-30T01:49:27.121Z,13.81
2018-09-30T01:52:06.960Z,13.92
2018-09-30T01:54:35.950Z,13.62
2018-09-30T01:57:04.986Z,13.88
2018-09-30T01:59:34.012Z,14.04
2018-09-30T02:02:02.963Z,14.03
2018-09-30T02:04:31.894Z,14.12
2018-09-30T02:07:00.821Z,14.07
2018-09-30T02:09:29.747Z,14.03
2018-09-30T02:11:59.321Z,14.04
2018-09-30T02:14:28.249Z,14.10
2018-09-30T02:16:57.259Z,14.05
2018-09-30T02:19:26.212Z,14.04
2018-09-30T02:21:55.135Z,14.01
2018-09-30T02:24:24.059Z,13.86
2018-09-30T02:26:52.959Z,13.93
2018-09-30T02:29:21.888Z,13.94
2018-09-30T02:31:50.844Z,13.87
2018-09-30T02:34:20.511Z,13.55
2018-09-30T02:36:50.376Z,13.50
2018-09-30T02:39:19.369Z,13.53
2018-09-30T02:41:48.358Z,13.68
2018-09-30T02:44:17.321Z,13.39
2018-09-30T02:46:46.275Z,12.73
2018-09-30T02:49:15.375Z,12.55
2018-09-30T02:51:44.340Z,12.72
2018-09-30T02:54:13.261Z,12.83
2018-09-30T02:56:42.224Z,13.09
2018-09-30T02:59:11.175Z,12.87
2018-09-30T03:01:40.167Z,12.49
2018-09-30T03:04:09.100Z,12.41
2018-09-30T03:06:43.138Z,12.46
2018-09-30T03:09:18.371Z,12.10
2018-09-30T03:11:47.483Z,12.17
2018-09-30T03:14:17.162Z,12.07
2018-09-30T03:16:46.867Z,12.44
2018-09-30T03:19:16.290Z,12.72
2018-09-30T03:21:45.230Z,12.73
2018-09-30T03:24:14.150Z,12.61
2018-09-30T03:26:43.204Z,12.86
2018-09-30T03:29:12.171Z,12.67
2018-09-30T03:31:41.104Z,12.60
2018-09-30T03:34:10.080Z,12.71
2018-09-30T03:36:39.022Z,12.70
2018-09-30T03:39:09.348Z,12.92
2018-09-30T03:41:38.291Z,12.84
2018-09-30T03:44:07.228Z,12.51
2018-09-30T03:46:36.223Z,12.57
2018-09-30T03:49:05.167Z,12.79
2018-09-30T03:51:34.083Z,12.41
2018-09-30T03:54:03.025Z,12.21
2018-09-30T03:56:32.129Z,12.24
2018-09-30T03:59:01.035Z,11.85
2018-09-30T04:01:29.951Z,11.90
2018-09-30T04:03:58.899Z,11.97
2018-09-30T04:06:27.838Z,12.28
2018-09-30T04:08:56.769Z,12.11
2018-09-30T04:11:25.700Z,12.41
2018-09-30T04:13:54.652Z,12.61
2018-09-30T04:16:23.591Z,12.71
2018-09-30T04:18:52.561Z,12.83
2018-09-30T04:21:21.504Z,12.96
2018-09-30T04:23:54.608Z,13.05
2018-09-30T04:26:23.530Z,13.38
2018-09-30T04:28:52.467Z,13.71
2018-09-30T04:31:21.671Z,13.93
2018-09-30T04:33:50.589Z,13.03
2018-09-30T04:36:19.604Z,13.15
2018-09-30T04:38:48.521Z,12.70
2018-09-30T04:41:17.519Z,12.52
2018-09-30T04:43:46.474Z,12.72
2018-09-30T04:46:15.419Z,12.77
2018-09-30T04:48:44.435Z,12.77
2018-09-30T04:51:13.383Z,12.65
2018-09-30T04:53:42.496Z,12.81
2018-09-30T04:56:11.440Z,12.77
2018-09-30T04:58:40.413Z,12.29
2018-09-30T05:01:09.427Z,12.23
2018-09-30T05:03:38.395Z,12.81
2018-09-30T05:06:07.364Z,13.15
2018-09-30T05:08:36.407Z,13.41
2018-09-30T05:11:05.366Z,13.41
2018-09-30T05:13:34.299Z,13.34
2018-09-30T05:16:03.283Z,13.13
2018-09-30T05:18:32.275Z,13.13
2018-09-30T05:21:01.255Z,13.07
2018-09-30T05:23:30.283Z,13.15
2018-09-30T05:25:59.711Z,13.27
2018-09-30T05:28:28.634Z,13.35
2018-09-30T05:30:57.580Z,13.38
2018-09-30T05:33:26.615Z,13.46
2018-09-30T05:35:55.869Z,13.49
2018-09-30T05:38:24.833Z,13.60
2018-09-30T05:40:53.776Z,13.67
2018-09-30T05:43:22.753Z,13.75
2018-09-30T05:45:51.803Z,13.81
2018-09-30T05:48:20.895Z,13.76
2018-09-30T05:50:49.840Z,13.89
2018-09-30T05:53:18.825Z,13.98
2018-09-30T05:55:47.812Z,14.01
2018-09-30T05:58:16.808Z,14.10
2018-09-30T06:00:45.804Z,14.19
2018-09-30T06:03:14.782Z,14.22
2018-09-30T06:05:43.871Z,14.10
2018-09-30T06:08:12.814Z,14.03
2018-09-30T06:10:41.714Z,14.19
2018-09-30T06:13:10.668Z,14.24
2018-09-30T06:15:39.683Z,14.79
2018-09-30T06:18:08.646Z,15.06
2018-09-30T06:20:37.561Z,15.14
2018-09-30T06:23:06.508Z,15.15
2018-09-30T06:25:35.470Z,15.12
2018-09-30T06:28:04.633Z,15.17
2018-09-30T06:30:37.539Z,15.06
2018-09-30T06:33:06.727Z,14.79
2018-09-30T06:35:35.668Z,14.59
2018-09-30T06:38:04.729Z,14.60
2018-09-30T06:40:33.828Z,14.51
2018-09-30T06:43:02.734Z,14.44
2018-09-30T06:45:31.880Z,14.34
2018-09-30T06:48:02.572Z,14.31
2018-09-30T06:50:32.100Z,14.19
2018-09-30T06:53:01.236Z,14.09
2018-09-30T06:55:30.166Z,14.18
2018-09-30T06:57:59.163Z,14.22
2018-09-30T07:00:28.246Z,14.28
2018-09-30T07:02:57.168Z,14.25
2018-09-30T07:05:26.137Z,14.29
2018-09-30T07:07:55.051Z,14.26
2018-09-30T07:10:23.995Z,14.18
2018-09-30T07:12:54.067Z,14.16
2018-09-30T07:15:22.975Z,14.05
2018-09-30T07:17:51.900Z,13.95
2018-09-30T07:20:21.862Z,14.07
2018-09-30T07:22:50.928Z,14.19
2018-09-30T07:25:19.860Z,14.16
2018-09-30T07:27:48.742Z,14.14
2018-09-30T07:30:18.163Z,14.20
2018-09-30T07:32:47.040Z,14.62
2018-09-30T07:35:17.205Z,15.02
2018-09-30T07:37:46.083Z,15.28
2018-09-30T07:40:15.039Z,15.44
2018-09-30T07:42:44.000Z,15.29
2018-09-30T07:45:13.093Z,15.02
2018-09-30T07:47:42.045Z,15.02
2018-09-30T07:50:10.983Z,15.00
